Time;durP1;ratioP1;P1;durP2;ratioP2;P2;SDS_P1;SDS_P2;PMS_P1;PMS_P2;Temp;Humidity;BMP_temperature;BMP_pressure;BME280_temperature;BME280_humidity;BME280_pressure;Samples;Min_cycle;Max_cycle;Signal;HPM_P1;HPM_P2
2022/05/04 00:01:46;;;;;;;2.13;1.60;;;;;;;10.89;74.81;99058.00;5053274;28;20609;-81
2022/05/04 00:04:11;;;;;;;2.90;1.37;;;;;;;10.82;74.06;99059.28;5053225;28;20181;-81
2022/05/04 00:06:37;;;;;;;2.50;1.13;;;;;;;10.67;72.70;99060.94;5052257;28;20179;-81
2022/05/04 00:09:03;;;;;;;5.10;1.67;;;;;;;10.68;72.24;99061.78;5052193;28;20182;-82
2022/05/04 00:11:28;;;;;;;2.83;1.53;;;;;;;10.65;71.73;99051.47;5053659;28;20178;-81
2022/05/04 00:13:54;;;;;;;1.37;1.10;;;;;;;10.62;71.29;99062.13;5053051;28;20188;-81
2022/05/04 00:16:20;;;;;;;1.50;0.90;;;;;;;10.65;70.91;99056.72;5052970;28;20280;-81
2022/05/04 00:18:45;;;;;;;6.90;1.60;;;;;;;10.58;71.43;99063.22;5053256;28;20195;-81
2022/05/04 00:21:10;;;;;;;3.27;1.43;;;;;;;10.62;71.40;99067.34;5052958;28;20216;-81
2022/05/04 00:23:36;;;;;;;2.80;0.90;;;;;;;10.57;71.44;99064.13;5051987;28;20205;-81
2022/05/04 00:26:02;;;;;;;5.63;1.37;;;;;;;10.51;72.66;99069.72;5051894;28;20645;-81
2022/05/04 00:28:27;;;;;;;3.03;2.33;;;;;;;10.32;77.29;99068.09;5052828;28;20182;-82
2022/05/04 00:30:53;;;;;;;4.07;2.27;;;;;;;10.24;81.34;99062.41;5051863;28;20170;-82
2022/05/04 00:33:18;;;;;;;5.20;2.87;;;;;;;10.26;83.35;99062.31;5052777;28;20182;-82
2022/05/04 00:35:44;;;;;;;6.57;2.60;;;;;;;10.38;83.96;99064.25;5052660;28;20194;-82
2022/05/04 00:38:09;;;;;;;7.70;3.60;;;;;;;10.53;83.36;99062.63;5053269;28;20577;-82
2022/05/04 00:40:35;;;;;;;5.27;3.10;;;;;;;10.56;83.39;99058.03;5053200;28;20178;-82
2022/05/04 00:43:00;;;;;;;4.60;2.83;;;;;;;10.58;83.98;99061.44;5052616;28;20181;-82
2022/05/04 00:45:26;;;;;;;6.53;3.20;;;;;;;10.64;84.29;99060.28;5052565;28;20552;-82
2022/05/04 00:47:51;;;;;;;5.70;3.13;;;;;;;10.77;84.01;99066.56;5052558;28;20178;-82
2022/05/04 00:50:17;;;;;;;7.70;3.33;;;;;;;10.75;84.25;99063.13;5051571;28;20681;-82
2022/05/04 00:52:44;;;;;;;5.30;2.83;;;;;;;10.72;84.34;99066.78;5052351;28;20689;-82
2022/05/04 00:55:10;;;;;;;7.43;3.63;;;;;;;10.63;85.30;99069.06;5053004;28;20186;-82
2022/05/04 01:00:22;;;;;;;6.07;2.43;;;;;;;10.79;85.63;99077.78;5052692;28;20209;-83
2022/05/04 01:02:48;;;;;;;5.87;3.87;;;;;;;10.74;86.36;99069.34;5052880;28;20201;-82
2022/05/04 01:05:14;;;;;;;7.47;3.60;;;;;;;10.83;86.53;99071.44;5052272;28;20174;-82
2022/05/04 01:07:41;;;;;;;7.73;3.70;;;;;;;10.82;86.41;99067.16;5052538;28;20581;-81
2022/05/04 01:10:08;;;;;;;5.70;3.43;;;;;;;10.98;86.86;99070.59;5051916;28;20272;-82
2022/05/04 01:12:33;;;;;;;7.13;4.27;;;;;;;10.86;86.79;99068.66;5051422;28;20230;-82
2022/05/04 01:15:00;;;;;;;6.40;3.20;;;;;;;10.77;87.87;99059.50;5052058;28;20206;-82
2022/05/04 01:17:27;;;;;;;4.40;2.37;;;;;;;10.89;88.09;99060.63;5052060;28;20219;-84
2022/05/04 01:19:55;;;;;;;7.33;3.30;;;;;;;11.03;87.29;99068.59;5051070;28;20181;-84
2022/05/04 01:22:22;;;;;;;5.13;3.20;;;;;;;10.91;87.36;99069.25;5051031;28;20636;-83
2022/05/04 01:24:48;;;;;;;6.83;4.17;;;;;;;10.86;88.32;99081.75;5051981;28;20170;-83
2022/05/04 01:27:13;;;;;;;4.90;2.93;;;;;;;10.86;88.07;99071.28;5050986;28;20653;-83
2022/05/04 01:29:38;;;;;;;6.27;3.80;;;;;;;11.04;87.78;99072.88;5050974;28;20189;-83
2022/05/04 01:32:04;;;;;;;5.87;3.53;;;;;;;11.01;87.19;99066.03;5051836;28;20196;-83
2022/05/04 01:34:30;;;;;;;10.97;3.50;;;;;;;10.95;86.88;99071.59;5051735;28;20238;-83
2022/05/04 01:36:55;;;;;;;6.70;2.87;;;;;;;11.00;87.11;99060.88;5050867;28;20174;-84
2022/05/04 01:39:21;;;;;;;10.87;3.97;;;;;;;10.94;87.21;99071.69;5050787;28;20182;-83
2022/05/04 01:42:05;;;;;;;5.67;2.83;;;;;;;11.01;87.01;99070.44;5051920;28;20578;-82
2022/05/04 01:44:32;;;;;;;6.17;3.07;;;;;;;10.93;87.42;99070.00;5051693;28;20187;-84
2022/05/04 01:47:01;;;;;;;7.33;2.93;;;;;;;10.87;87.80;99070.34;5050669;28;20640;-84
2022/05/04 01:49:27;;;;;;;10.20;3.00;;;;;;;10.98;87.75;99071.44;5051866;28;20181;-84
2022/05/04 01:51:52;;;;;;;7.77;3.73;;;;;;;11.00;87.86;99080.09;5050617;28;20191;-83
2022/05/04 01:54:24;;;;;;;5.27;3.27;;;;;;;11.03;87.69;99072.03;5051340;28;20210;-83
2022/05/04 01:56:49;;;;;;;6.77;3.60;;;;;;;11.06;87.76;99078.88;5051499;28;20183;-83
2022/05/04 01:59:15;;;;;;;6.77;3.53;;;;;;;10.95;87.98;99082.09;5051390;28;20239;-84
2022/05/04 02:01:41;;;;;;;15.50;7.03;;;;;;;11.04;88.77;99078.13;5051408;28;20209;-83
2022/05/04 02:04:08;;;;;;;8.27;4.93;;;;;;;10.97;88.76;99080.25;5050471;28;20174;-83
2022/05/04 02:06:35;;;;;;;11.40;4.97;;;;;;;10.92;89.35;99073.56;5050359;28;20258;-83
2022/05/04 02:09:01;;;;;;;11.67;5.93;;;;;;;10.94;89.61;99079.56;5051530;28;20174;-83
2022/05/04 02:11:28;;;;;;;12.57;6.10;;;;;;;11.03;89.14;99081.69;5050268;28;20277;-82
2022/05/04 02:13:53;;;;;;;10.73;5.63;;;;;;;10.98;89.49;99081.09;5051191;28;20165;-83
2022/05/04 02:16:19;;;;;;;10.53;5.53;;;;;;;11.07;88.67;99081.44;5051096;28;20225;-84
2022/05/04 02:18:44;;;;;;;13.10;6.93;;;;;;;11.19;88.43;99076.44;5051139;28;20170;-83
2022/05/04 02:21:10;;;;;;;10.60;6.03;;;;;;;11.24;87.81;99082.28;5050119;28;20227;-83
2022/05/04 02:23:36;;;;;;;11.33;4.83;;;;;;;11.29;87.67;99090.75;5050768;28;20193;-83
2022/05/04 02:26:02;;;;;;;11.87;5.27;;;;;;;11.25;87.74;99089.19;5050041;28;20174;-83
2022/05/04 02:28:27;;;;;;;13.07;6.53;;;;;;;11.11;88.25;99103.09;5050044;28;20192;-82
2022/05/04 02:30:53;;;;;;;14.53;7.17;;;;;;;11.22;88.23;99094.63;5049988;28;20170;-82
2022/05/04 02:33:18;;;;;;;13.87;6.03;;;;;;;11.48;86.89;99107.97;5050905;28;20537;-84
2022/05/04 02:38:28;;;;;;;14.13;6.53;;;;;;;11.55;85.45;99098.84;5051424;28;20182;-84
2022/05/04 02:40:53;;;;;;;10.83;6.10;;;;;;;11.56;85.06;99103.13;5050764;28;20177;-85
2022/05/04 02:43:19;;;;;;;9.93;5.23;;;;;;;11.59;84.30;99096.84;5050748;28;20174;-85
2022/05/04 02:45:45;;;;;;;12.80;6.20;;;;;;;11.35;85.07;99106.13;5050731;28;20196;-84
2022/05/04 02:48:10;;;;;;;17.20;6.20;;;;;;;11.32;85.59;99107.13;5049771;28;20174;-83
2022/05/04 02:50:36;;;;;;;10.47;6.47;;;;;;;11.45;85.38;99113.38;5049703;28;20209;-83
2022/05/04 02:53:04;;;;;;;11.10;5.87;;;;;;;11.44;84.80;99111.72;5050529;28;20199;-83
2022/05/04 02:55:29;;;;;;;8.03;4.47;;;;;;;11.52;84.15;99113.91;5050502;28;20221;-82
2022/05/04 02:57:55;;;;;;;12.87;5.37;;;;;;;11.48;84.33;99110.59;5050572;28;20206;-83
2022/05/04 03:00:21;;;;;;;11.67;6.10;;;;;;;11.54;83.72;99118.13;5050514;28;20242;-84
2022/05/04 03:02:46;;;;;;;9.47;4.27;;;;;;;11.53;83.34;99121.69;5050753;28;20189;-83
2022/05/04 03:05:13;;;;;;;9.93;4.23;;;;;;;11.65;82.46;99115.75;5049555;28;20250;-84
2022/05/04 03:07:39;;;;;;;15.03;5.43;;;;;;;11.64;82.67;99132.41;5050426;28;20628;-83
2022/05/04 03:10:06;;;;;;;8.50;4.37;;;;;;;11.85;82.34;99132.16;5049426;28;20211;-83
2022/05/04 03:12:31;;;;;;;10.50;4.90;;;;;;;12.03;81.70;99142.44;5050344;28;20172;-83
2022/05/04 03:14:57;;;;;;;6.63;4.20;;;;;;;11.98;81.04;99143.63;5049302;28;20205;-83
2022/05/04 03:17:23;;;;;;;8.17;3.90;;;;;;;12.11;80.93;99149.88;5050324;28;20182;-83
2022/05/04 03:19:49;;;;;;;9.67;5.17;;;;;;;12.08;80.32;99150.06;5050266;28;20194;-83
2022/05/04 03:22:14;;;;;;;12.00;5.67;;;;;;;12.21;79.90;99151.06;5049291;28;20589;-83
2022/05/04 03:24:40;;;;;;;7.73;3.63;;;;;;;12.18;78.82;99146.81;5050498;28;20670;-84
2022/05/04 03:27:05;;;;;;;8.10;3.40;;;;;;;11.98;78.21;99149.75;5050140;28;20183;-84
2022/05/04 03:29:31;;;;;;;8.83;3.60;;;;;;;11.88;78.62;99155.63;5050425;28;20259;-85
2022/05/04 03:31:56;;;;;;;7.60;3.07;;;;;;;11.89;78.33;99165.19;5050670;28;20178;-83
2022/05/04 03:34:22;;;;;;;4.90;2.90;;;;;;;12.15;77.51;99160.13;5051254;28;20246;-84
2022/05/04 03:36:47;;;;;;;5.90;3.13;;;;;;;12.21;76.28;99158.94;5053686;28;20174;-86
2022/05/04 03:39:13;;;;;;;5.33;2.60;;;;;;;12.04;76.23;99161.69;5052731;27;20236;-84
2022/05/04 03:41:39;;;;;;;3.70;2.23;;;;;;;11.94;76.92;99184.16;5053871;28;20243;-84
2022/05/04 03:44:05;;;;;;;6.00;2.90;;;;;;;11.89;77.13;99179.19;5053571;28;20253;-84
2022/05/04 03:46:47;;;;;;;6.07;2.67;;;;;;;11.71;77.03;99188.09;5052582;28;20182;-85
2022/05/04 03:49:16;;;;;;;6.33;2.57;;;;;;;11.55;77.61;99193.34;5053749;28;20257;-84
2022/05/04 03:51:42;;;;;;;4.23;1.93;;;;;;;11.56;77.91;99191.53;5052489;28;20200;-84
2022/05/04 03:54:08;;;;;;;5.67;2.77;;;;;;;11.67;78.35;99191.78;5052347;28;20189;-84
2022/05/04 03:56:34;;;;;;;2.37;1.47;;;;;;;11.76;77.17;99190.47;5053244;28;20208;-85
2022/05/04 03:59:00;;;;;;;4.83;2.20;;;;;;;11.64;77.63;99190.19;5052410;28;20194;-84
2022/05/04 04:01:26;;;;;;;5.27;2.73;;;;;;;11.61;77.66;99198.22;5053586;28;20180;-85
2022/05/04 04:03:51;;;;;;;4.63;2.23;;;;;;;11.56;77.45;99192.38;5052293;28;20234;-85
2022/05/04 04:06:17;;;;;;;5.23;2.70;;;;;;;11.71;77.45;99194.19;5053493;28;20170;-85
2022/05/04 04:08:42;;;;;;;3.07;1.67;;;;;;;11.59;76.69;99194.84;5053190;28;20182;-84
2022/05/04 04:11:09;;;;;;;4.87;2.47;;;;;;;11.61;76.97;99198.22;5053142;28;20197;-84
2022/05/04 04:13:34;;;;;;;6.17;3.30;;;;;;;11.78;76.78;99189.44;5052161;28;20197;-84
2022/05/04 04:15:59;;;;;;;7.57;2.63;;;;;;;12.02;76.24;99187.19;5052058;28;20207;-84
2022/05/04 04:18:29;;;;;;;3.30;2.30;;;;;;;12.18;74.87;99182.75;5053018;28;20190;-84
2022/05/04 04:23:40;;;;;;;5.57;1.83;;;;;;;12.21;74.26;99182.59;5053519;28;20175;-84
2022/05/04 04:26:07;;;;;;;3.03;1.53;;;;;;;12.14;73.44;99176.81;5053483;28;20172;-85
2022/05/04 04:28:34;;;;;;;3.83;1.77;;;;;;;12.13;73.83;99185.63;5051905;28;20670;-86
2022/05/04 04:31:01;;;;;;;5.00;1.87;;;;;;;12.26;73.42;99185.78;5052825;28;20646;-84
2022/05/04 04:33:27;;;;;;;4.77;2.53;;;;;;;12.33;72.50;99182.72;5052152;28;20645;-84
2022/05/04 04:35:53;;;;;;;3.53;2.10;;;;;;;12.51;72.40;99186.03;5051802;28;20276;-84
2022/05/04 04:38:19;;;;;;;4.63;1.90;;;;;;;12.61;71.26;99183.69;5051807;28;20208;-84
2022/05/04 04:40:45;;;;;;;2.97;2.10;;;;;;;12.72;70.62;99187.38;5052699;28;20620;-85
2022/05/04 04:43:10;;;;;;;2.57;1.47;;;;;;;12.80;70.89;99192.16;5052687;28;20186;-84
2022/05/04 04:45:36;;;;;;;3.60;1.90;;;;;;;12.97;70.29;99194.59;5052568;28;20645;-84
2022/05/04 04:48:02;;;;;;;8.13;3.30;;;;;;;13.01;70.69;99190.00;5052831;28;20228;-84
2022/05/04 04:50:27;;;;;;;6.90;1.97;;;;;;;13.11;71.03;99197.25;5052549;28;20180;-85
2022/05/04 04:52:53;;;;;;;2.90;1.70;;;;;;;13.10;70.91;99195.56;5052570;28;20227;-84
2022/05/04 04:55:18;;;;;;;2.90;1.47;;;;;;;12.93;71.34;99201.00;5052719;28;20188;-85
2022/05/04 04:57:44;;;;;;;4.70;1.90;;;;;;;12.64;71.96;99205.38;5052417;28;20198;-84
2022/05/04 05:00:10;;;;;;;3.50;1.80;;;;;;;12.61;73.33;99210.81;5051469;28;20213;-85
2022/05/04 05:02:36;;;;;;;5.10;2.37;;;;;;;12.18;74.29;99196.75;5052265;28;20191;-84
2022/05/04 05:05:03;;;;;;;3.47;1.90;;;;;;;12.31;75.04;99205.63;5051350;28;20179;-85
2022/05/04 05:07:29;;;;;;;6.13;2.50;;;;;;;12.63;73.91;99211.56;5052535;28;20171;-84
2022/05/04 05:09:55;;;;;;;6.27;3.17;;;;;;;12.58;73.61;99212.81;5052211;28;20570;-84
2022/05/04 05:12:24;;;;;;;5.13;2.60;;;;;;;12.70;73.84;99218.19;5052225;28;20175;-84
2022/05/04 05:17:35;;;;;;;5.53;2.80;;;;;;;12.86;72.49;99208.44;5052943;28;20277;-85
2022/05/04 05:20:02;;;;;;;4.97;2.37;;;;;;;12.88;71.88;99206.53;5052041;28;20181;-86
2022/05/04 05:22:27;;;;;;;5.07;2.27;;;;;;;12.99;72.71;99218.19;5051068;28;20203;-85
2022/05/04 05:24:53;;;;;;;5.07;1.90;;;;;;;13.16;71.04;99213.63;5052492;28;20217;-85
2022/05/04 05:27:18;;;;;;;5.90;2.77;;;;;;;13.42;69.81;99214.63;5050983;28;20185;-85
2022/05/04 05:29:44;;;;;;;4.97;2.40;;;;;;;13.74;69.13;99208.16;5050918;28;20185;-84
2022/05/04 05:32:09;;;;;;;7.20;2.43;;;;;;;14.06;67.83;99209.56;5050935;28;20193;-85
2022/05/04 05:34:35;;;;;;;3.27;1.50;;;;;;;14.46;67.42;99214.88;5051771;28;20640;-85
2022/05/04 05:37:01;;;;;;;4.27;2.40;;;;;;;14.73;66.48;99199.78;5052037;28;20178;-84
2022/05/04 05:39:27;;;;;;;3.40;1.97;;;;;;;14.96;65.37;99207.00;5051690;28;20170;-85
2022/05/04 05:41:52;;;;;;;4.47;2.00;;;;;;;15.13;63.61;99213.72;5051705;28;20528;-85
2022/05/04 05:44:18;;;;;;;4.83;2.33;;;;;;;15.30;63.15;99214.22;5051673;28;20182;-86
2022/05/04 05:46:43;;;;;;;4.73;2.13;;;;;;;15.38;62.07;99209.25;5052127;28;20179;-85
2022/05/04 05:49:09;;;;;;;4.57;2.17;;;;;;;15.45;62.43;99209.66;5051586;28;20179;-85
2022/05/04 05:51:34;;;;;;;2.17;1.37;;;;;;;15.47;60.86;99207.78;5050627;28;20702;-85
2022/05/04 05:54:00;;;;;;;4.83;2.03;;;;;;;15.56;61.51;99212.44;5051376;28;20192;-85
2022/05/04 05:56:25;;;;;;;4.33;1.97;;;;;;;15.85;62.72;99207.69;5050219;28;20201;-85
2022/05/04 05:58:51;;;;;;;5.33;1.13;;;;;;;16.13;61.02;99206.47;5051376;28;20177;-86
2022/05/04 06:01:16;;;;;;;3.23;1.67;;;;;;;16.30;59.40;99203.44;5051409;28;20604;-85
2022/05/04 06:03:42;;;;;;;3.00;1.57;;;;;;;16.31;58.07;99199.81;5050447;28;20214;-86
2022/05/04 06:06:08;;;;;;;3.37;2.07;;;;;;;16.43;58.92;99201.56;5051887;28;20170;-85
2022/05/04 06:08:34;;;;;;;4.77;1.27;;;;;;;16.54;59.01;99198.97;5051558;28;20512;-85
2022/05/04 06:11:00;;;;;;;3.70;1.97;;;;;;;16.48;58.57;99202.88;5051189;28;20592;-85
2022/05/04 06:13:25;;;;;;;3.00;1.90;;;;;;;16.77;57.43;99207.81;5051435;28;20513;-85
2022/05/04 06:15:51;;;;;;;3.03;1.70;;;;;;;17.09;57.01;99212.28;5050171;28;20205;-85
2022/05/04 06:18:16;;;;;;;5.33;3.03;;;;;;;17.30;56.78;99209.75;5051658;28;20188;-87
2022/05/04 06:20:42;;;;;;;4.30;1.60;;;;;;;17.65;56.18;99209.66;5051125;28;20193;-86
2022/05/04 06:23:08;;;;;;;3.70;1.50;;;;;;;17.93;54.27;99205.59;5051059;28;20632;-87
2022/05/04 06:25:35;;;;;;;2.30;1.10;;;;;;;18.43;53.72;99203.13;5050989;28;20166;-86
2022/05/04 06:28:01;;;;;;;3.27;1.30;;;;;;;18.88;50.42;99206.41;5051012;28;20173;-86
2022/05/04 06:35:54;;;;;;;2.50;1.00;;;;;;;20.68;45.74;99197.31;5051487;28;20238;-87
2022/05/04 06:38:20;;;;;;;1.87;1.00;;;;;;;20.97;43.95;99191.91;5050226;28;20211;-88
2022/05/04 06:40:45;;;;;;;1.50;0.93;;;;;;;20.72;41.99;99188.06;5050772;28;20166;-88
2022/05/04 06:43:11;;;;;;;3.13;1.17;;;;;;;20.47;43.94;99196.63;5051333;28;20179;-87
2022/05/04 06:45:36;;;;;;;2.30;1.07;;;;;;;20.73;45.35;99189.72;5051013;28;20181;-87
2022/05/04 06:48:02;;;;;;;4.53;0.57;;;;;;;20.97;43.37;99189.25;5050737;28;20679;-86
2022/05/04 06:50:28;;;;;;;1.27;0.63;;;;;;;21.28;43.07;99199.56;5050652;28;20174;-89
2022/05/04 06:52:54;;;;;;;1.97;1.00;;;;;;;21.39;42.96;99198.53;5049961;28;20205;-86
2022/05/04 06:55:20;;;;;;;2.57;1.27;;;;;;;21.47;42.05;99205.78;5050817;28;20201;-88
2022/05/04 06:57:45;;;;;;;1.23;0.87;;;;;;;21.62;43.59;99199.81;5050542;28;20178;-88
2022/05/04 07:00:11;;;;;;;1.50;0.67;;;;;;;21.76;42.66;99202.00;5049565;28;20265;-88
2022/05/04 07:02:37;;;;;;;2.13;0.93;;;;;;;21.85;42.26;99198.44;5050497;28;20202;-88
2022/05/04 07:05:03;;;;;;;2.13;0.90;;;;;;;21.71;41.81;99198.09;5050714;28;20698;-88
2022/05/04 07:07:29;;;;;;;4.90;1.27;;;;;;;21.67;42.76;99196.72;5049465;28;20191;-88
2022/05/04 07:09:54;;;;;;;15.43;1.67;;;;;;;21.62;42.97;99199.81;5049443;28;20182;-88
2022/05/04 07:12:21;;;;;;;2.53;0.87;;;;;;;21.53;41.25;99199.88;5049991;28;20638;-88
2022/05/04 07:14:47;;;;;;;3.43;1.23;;;;;;;21.49;42.03;99196.66;5050227;28;20209;-88
2022/05/04 07:17:12;;;;;;;2.00;1.00;;;;;;;21.41;41.18;99197.41;5050353;28;20174;-88
2022/05/04 07:19:38;;;;;;;2.30;1.33;;;;;;;21.43;42.41;99197.28;5049325;28;20196;-88
2022/05/04 07:22:04;;;;;;;1.57;0.73;;;;;;;21.47;42.36;99197.78;5049296;28;20266;-87
2022/05/04 07:24:29;;;;;;;2.13;0.97;;;;;;;21.19;43.41;99200.44;5050536;28;20197;-87
2022/05/04 07:26:55;;;;;;;3.73;1.47;;;;;;;21.13;46.19;99201.03;5050454;28;20188;-87
2022/05/04 07:29:20;;;;;;;5.03;1.20;;;;;;;21.07;42.86;99204.25;5049692;28;20178;-88
2022/05/04 07:31:46;;;;;;;1.87;1.07;;;;;;;20.65;45.87;99205.63;5049915;28;20192;-86
2022/05/04 07:34:14;;;;;;;3.93;1.80;;;;;;;20.44;46.56;99204.94;5050457;28;20657;-87
2022/05/04 07:36:40;;;;;;;3.37;1.43;;;;;;;20.43;44.97;99200.56;5049041;28;20205;-88
2022/05/04 07:39:05;;;;;;;3.13;1.23;;;;;;;20.30;46.61;99202.69;5050052;28;20178;-90
2022/05/04 07:44:15;;;;;;;2.23;1.03;;;;;;;20.16;47.69;99207.41;5050858;28;20193;-89
2022/05/04 07:46:42;;;;;;;2.63;1.30;;;;;;;20.18;46.19;99200.13;5050332;28;20205;-90
2022/05/04 07:49:07;;;;;;;3.97;1.70;;;;;;;20.25;48.04;99202.25;5049374;28;20170;-89
2022/05/04 07:51:33;;;;;;;2.80;1.27;;;;;;;20.08;47.19;99201.94;5050433;28;20254;-90
2022/05/04 07:53:59;;;;;;;2.27;1.10;;;;;;;20.28;47.72;99204.66;5048982;28;20189;-89
2022/05/04 07:56:24;;;;;;;7.77;1.10;;;;;;;20.39;46.97;99201.84;5049089;28;20202;-89
2022/05/04 07:58:50;;;;;;;2.67;1.20;;;;;;;20.67;47.62;99200.97;5049102;28;20620;-88
2022/05/04 08:04:17;;;;;;;2.10;0.70;;;;;;;21.06;43.91;99196.41;5050083;28;20257;-89
2022/05/04 08:06:44;;;;;;;4.87;1.43;;;;;;;21.32;43.62;99195.63;5049120;28;20197;-89
2022/05/04 08:09:10;;;;;;;1.87;1.03;;;;;;;21.38;42.02;99197.69;5049259;28;20536;-90
2022/05/04 08:11:35;;;;;;;2.73;1.17;;;;;;;21.43;40.99;99189.28;5049786;28;20655;-89
2022/05/04 08:14:01;;;;;;;1.87;0.60;;;;;;;21.61;41.60;99186.63;5050182;28;20174;-90
2022/05/04 08:16:26;;;;;;;1.93;0.83;;;;;;;21.68;40.75;99198.38;5048986;28;20202;-89
2022/05/04 08:18:52;;;;;;;1.40;0.70;;;;;;;21.75;40.46;99188.81;5048830;28;20178;-90
2022/05/04 08:21:17;;;;;;;1.60;0.70;;;;;;;21.88;41.27;99192.81;5052059;28;20169;-93
2022/05/04 08:23:43;;;;;;;2.57;1.20;;;;;;;21.93;41.36;99193.19;5053153;28;20196;-91
2022/05/04 08:26:10;;;;;;;1.57;0.70;;;;;;;21.90;38.96;99192.69;5052250;28;20612;-91
2022/05/04 08:28:35;;;;;;;3.33;1.23;;;;;;;21.87;41.41;99191.16;5053105;28;20243;-91
2022/05/04 08:31:01;;;;;;;4.80;1.20;;;;;;;22.02;42.57;99188.78;5052511;28;20182;-90
2022/05/04 08:33:26;;;;;;;2.50;0.90;;;;;;;22.02;41.22;99188.78;5053338;28;20627;-89
2022/05/04 08:35:52;;;;;;;3.00;0.90;;;;;;;21.95;42.48;99185.91;5053154;28;20288;-91
2022/05/04 08:38:17;;;;;;;4.13;1.13;;;;;;;22.06;42.08;99195.53;5052074;28;20178;-90
2022/05/04 08:40:43;;;;;;;2.57;0.90;;;;;;;22.08;40.95;99190.03;5052071;28;20689;-91
2022/05/04 08:43:09;;;;;;;3.33;1.07;;;;;;;21.99;40.95;99184.59;5053268;28;20174;-91
2022/05/04 08:45:40;;;;;;;1.63;0.73;;;;;;;21.95;41.36;99190.41;5052836;28;20628;-90
2022/05/04 08:48:08;;;;;;;2.37;1.23;;;;;;;22.00;42.74;99188.97;5051961;28;20193;-91
2022/05/04 08:50:35;;;;;;;2.07;0.90;;;;;;;22.10;43.17;99188.88;5052634;28;20184;-91
2022/05/04 08:53:02;;;;;;;1.83;1.00;;;;;;;22.29;41.27;99193.22;5052157;28;20214;-90
2022/05/04 08:55:28;;;;;;;2.53;1.23;;;;;;;22.24;40.42;99183.00;5052961;28;20701;-90
2022/05/04 08:57:54;;;;;;;1.23;0.80;;;;;;;22.16;41.20;99187.44;5052100;28;20184;-92
2022/05/04 09:00:20;;;;;;;1.50;0.87;;;;;;;22.22;40.40;99182.31;5051836;28;20269;-92
2022/05/04 09:02:45;;;;;;;3.90;0.90;;;;;;;22.28;40.31;99178.19;5052802;28;20174;-92
2022/05/04 09:05:29;;;;;;;2.20;1.00;;;;;;;22.42;40.16;99185.66;5052979;28;20166;-91
2022/05/04 09:07:56;;;;;;;4.73;0.80;;;;;;;22.60;41.67;99173.13;5051698;28;20689;-91
2022/05/04 09:10:34;;;;;;;1.83;0.80;;;;;;;22.67;40.23;99178.72;5051652;28;20200;-90
2022/05/04 09:12:59;;;;;;;2.03;0.77;;;;;;;22.81;39.92;99181.66;5051813;28;20165;-91
2022/05/04 09:15:27;;;;;;;2.30;1.47;;;;;;;22.67;40.94;99181.41;5052305;28;20262;-91
2022/05/04 09:18:06;;;;;;;3.23;1.17;;;;;;;22.10;40.20;99178.19;5051425;28;20219;-90
2022/05/04 09:20:45;;;;;;;1.33;0.80;;;;;;;22.38;42.61;99181.63;5051504;28;20177;-91
2022/05/04 09:23:17;;;;;;;2.90;0.90;;;;;;;22.72;41.63;99177.25;5052630;28;20158;-91
2022/05/04 09:25:44;;;;;;;1.07;0.63;;;;;;;22.52;40.31;99167.72;5052396;28;20178;-89
2022/05/04 09:28:11;;;;;;;1.60;0.73;;;;;;;22.72;39.46;99168.41;5051269;28;20193;-91
2022/05/04 09:30:43;;;;;;;5.57;0.70;;;;;;;22.81;39.82;99167.44;5052333;28;20184;-90
2022/05/04 09:33:12;;;;;;;1.40;0.63;;;;;;;23.07;39.93;99157.59;5051657;28;20639;-93
2022/05/04 09:35:41;;;;;;;2.73;1.10;;;;;;;23.07;39.17;99161.09;5051267;28;20309;-90
2022/05/04 09:46:47;;;;;;;1.53;0.60;;;;;;;23.65;38.67;99144.31;5052004;28;20252;-89
2022/05/04 09:49:16;;;;;;;0.83;0.43;;;;;;;23.65;37.74;99155.88;5051517;28;20177;-87
2022/05/04 09:51:48;;;;;;;0.97;0.50;;;;;;;23.94;38.58;99151.91;5051633;28;20658;-87
2022/05/04 09:54:21;;;;;;;1.77;0.70;;;;;;;24.26;38.28;99150.16;5050949;28;20276;-88
2022/05/04 09:57:03;;;;;;;1.67;0.50;;;;;;;24.11;33.58;99154.47;5050557;28;20262;-87
2022/05/04 09:59:30;;;;;;;2.20;0.97;;;;;;;23.92;36.62;99149.41;5051810;28;20512;-88
2022/05/04 10:01:59;;;;;;;1.57;0.83;;;;;;;23.91;38.29;99141.53;5050463;28;20174;-88
2022/05/04 10:04:27;;;;;;;2.03;0.83;;;;;;;23.93;37.88;99150.22;5050436;28;20276;-88
2022/05/04 10:06:53;;;;;;;2.77;0.77;;;;;;;23.98;38.72;99153.28;5051608;28;20627;-87
2022/05/04 10:09:21;;;;;;;1.13;0.70;;;;;;;24.02;38.28;99141.22;5050344;28;20177;-88
2022/05/04 10:11:47;;;;;;;1.83;0.90;;;;;;;23.89;38.85;99143.53;5050322;28;20523;-88
2022/05/04 10:14:15;;;;;;;1.23;0.67;;;;;;;24.03;38.46;99133.00;5050641;28;20647;-88
2022/05/04 10:16:40;;;;;;;2.23;0.90;;;;;;;24.62;37.16;99133.72;5051486;28;20209;-88
2022/05/04 10:19:12;;;;;;;1.57;0.77;;;;;;;24.84;38.19;99133.06;5051163;28;20222;-88
2022/05/04 10:21:40;;;;;;;3.73;1.10;;;;;;;25.02;36.91;99125.63;5050269;28;20170;-88
2022/05/04 10:24:07;;;;;;;4.90;0.63;;;;;;;24.73;36.45;99128.00;5050165;28;20182;-88
2022/05/04 10:26:37;;;;;;;2.67;0.90;;;;;;;24.68;36.15;99125.84;5051661;28;20759;-87
2022/05/04 10:32:43;;;;;;;1.60;0.73;;;;;;;24.78;34.24;99120.28;5051261;28;20222;-88
2022/05/04 10:35:13;;;;;;;1.73;0.77;;;;;;;24.80;34.78;99118.31;5050004;28;20196;-88
2022/05/04 10:37:57;;;;;;;1.80;1.17;;;;;;;25.00;34.42;99107.00;5051482;28;20627;-88
2022/05/04 10:40:45;;;;;;;1.63;0.77;;;;;;;24.66;31.62;99111.75;5051456;28;20612;-89
2022/05/04 10:43:13;;;;;;;3.83;1.23;;;;;;;24.54;34.06;99114.97;5050391;28;20181;-89
2022/05/04 10:45:41;;;;;;;3.43;1.23;;;;;;;24.57;33.67;99111.94;5049871;28;20174;-89
2022/05/04 10:48:21;;;;;;;1.87;0.97;;;;;;;24.74;33.40;99111.75;5051327;28;20177;-88
2022/05/04 10:50:55;;;;;;;7.33;0.83;;;;;;;24.24;33.42;99113.81;5051105;28;20165;-90
2022/05/04 10:53:42;;;;;;;1.57;0.70;;;;;;;24.03;35.30;99114.25;5050900;28;20663;-88
2022/05/04 10:56:13;;;;;;;1.67;0.60;;;;;;;24.02;33.63;99117.13;5050479;28;20201;-90
2022/05/04 10:58:44;;;;;;;1.93;0.93;;;;;;;23.84;34.92;99120.78;5050325;28;20197;-88
2022/05/04 11:01:20;;;;;;;1.97;1.03;;;;;;;23.62;34.96;99121.41;5050611;28;20188;-89
2022/05/04 11:03:51;;;;;;;4.20;1.27;;;;;;;23.23;36.03;99122.91;5049972;28;20181;-88
2022/05/04 11:06:29;;;;;;;1.27;0.67;;;;;;;23.03;34.28;99129.50;5049651;28;20543;-90
2022/05/04 11:08:59;;;;;;;1.90;0.90;;;;;;;23.09;35.84;99127.00;5050721;28;20177;-89
2022/05/04 11:11:26;;;;;;;2.60;0.90;;;;;;;23.18;35.32;99130.56;5049525;28;20166;-88
2022/05/04 11:13:53;;;;;;;1.40;0.67;;;;;;;22.95;34.69;99129.47;5050457;28;20220;-89
2022/05/04 11:16:28;;;;;;;2.03;0.87;;;;;;;23.16;35.39;99125.41;5050281;28;20201;-88
2022/05/04 11:18:55;;;;;;;2.40;1.00;;;;;;;23.31;34.93;99116.75;5050555;28;20165;-87
2022/05/04 11:21:20;;;;;;;2.27;0.90;;;;;;;23.22;34.67;99118.53;5050163;28;20268;-88
2022/05/04 11:23:52;;;;;;;1.63;0.90;;;;;;;23.37;34.80;99116.97;5050259;28;20675;-88
2022/05/04 11:26:22;;;;;;;1.93;0.63;;;;;;;23.44;34.56;99115.31;5049250;28;20173;-88
2022/05/04 11:28:49;;;;;;;2.70;0.73;;;;;;;23.11;34.87;99116.19;5049239;28;20596;-89
2022/05/04 11:31:15;;;;;;;2.20;1.00;;;;;;;23.25;35.06;99111.03;5050396;28;20671;-88
2022/05/04 11:33:43;;;;;;;1.70;0.83;;;;;;;23.52;35.57;99107.31;5050098;28;20209;-88
2022/05/04 11:36:09;;;;;;;5.67;0.80;;;;;;;23.96;34.50;99096.34;5050571;28;20190;-87
2022/05/04 11:38:35;;;;;;;2.43;0.83;;;;;;;24.44;34.70;99101.75;5050068;28;20178;-87
2022/05/04 11:41:01;;;;;;;2.30;1.13;;;;;;;24.43;33.46;99100.91;5050552;28;20181;-88
2022/05/04 11:43:28;;;;;;;3.20;0.83;;;;;;;24.69;32.95;99092.66;5049971;28;20537;-87
2022/05/04 11:45:57;;;;;;;1.77;0.90;;;;;;;24.76;33.74;99082.09;5049487;28;20573;-88
2022/05/04 11:48:25;;;;;;;2.20;1.07;;;;;;;24.56;32.03;99083.47;5048972;28;20174;-87
2022/05/04 11:50:50;;;;;;;3.73;0.90;;;;;;;24.75;33.42;99086.63;5048985;28;20204;-87
2022/05/04 11:53:16;;;;;;;3.63;1.70;;;;;;;24.96;34.45;99086.06;5048863;28;20644;-88
2022/05/04 11:55:42;;;;;;;3.10;1.37;;;;;;;24.86;34.08;99086.28;5050253;28;20727;-88
2022/05/04 11:58:12;;;;;;;1.80;0.90;;;;;;;24.74;33.99;99084.09;5053390;28;20256;-89
2022/05/04 12:00:38;;;;;;;4.13;0.93;;;;;;;24.18;32.13;99079.66;5052680;28;20662;-87
2022/05/04 12:03:05;;;;;;;2.60;0.90;;;;;;;23.75;33.30;99073.59;5052462;28;20181;-88
2022/05/04 12:05:33;;;;;;;1.37;0.70;;;;;;;23.95;34.31;99070.59;5053856;28;20233;-88